KCRW Airport Diagram

We have created a template for each of the higher traffic airports in the vZID airspace. They include KCMH, KCRW, KCVG, KDAY, KIND, KLEX and KSDF. You wil find usefull information including the airport diagram, weather, and specific airport procedures.

KCRW Weather

[Source: ADDS]
METAR
KCRW 171254Z 25004KT 10SM OVC014 05/04 A3011 RMK AO2 SLP199 T00500039 =
KCRW 171136Z 1712/1812 24008KT 3SM BR BKN025 TEMPO 1712/1714 6SM BR SCT015 SCT025 FM171400 25007KT P6SM SCT015 TEMPO 1714/1716 BKN015 BKN025 FM172000 28008KT P6SM SCT015 FM172300 29005KT P6SM BKN015 FM180300 32004KT P6SM BKN015
TAF
KCRW 171136Z 1712/1812 24008KT 3SM BR BKN025 TEMPO 1712/1714 6SM BR SCT015 SCT025 FM171400 25007KT P6SM SCT015 TEMPO 1714/1716 BKN015 BKN025 FM172000 28008KT P6SM SCT015 FM172300 29005KT P6SM BKN015 FM180300 32004KT P6SM BKN015 =

KCRW Operations

Calm wind runway up to 10kts: Rw 23

 

JSN Epic template designed by JoomlaShine.com